Time;durP1;ratioP1;P1;durP2;ratioP2;P2;SDS_P1;SDS_P2;PMS_P1;PMS_P2;Temp;Humidity;BMP_temperature;BMP_pressure;BME280_temperature;BME280_humidity;BME280_pressure;Samples;Min_cycle;Max_cycle;Signal;HPM_P1;HPM_P2
2022/09/04 00:00:07;;;;;;;9.10;8.10;;;;;;;17.81;76.55;101275.66;5041775;28;20029;-72
2022/09/04 00:02:51;;;;;;;9.43;8.32;;;;;;;17.76;78.09;101274.09;5037610;28;20064;-72
2022/09/04 00:05:27;;;;;;;9.77;8.65;;;;;;;17.68;77.06;101264.78;5042735;28;20423;-72
2022/09/04 00:08:24;;;;;;;12.18;8.68;;;;;;;17.67;77.41;101286.81;5051170;28;20078;-72
2022/09/04 00:10:57;;;;;;;11.90;8.80;;;;;;;17.62;77.22;101287.00;5053125;28;20062;-72
2022/09/04 00:13:31;;;;;;;12.60;8.93;;;;;;;17.66;78.30;101293.03;5049813;28;20036;-71
2022/09/04 00:16:05;;;;;;;10.65;8.60;;;;;;;17.57;78.56;101289.03;5049873;28;20036;-72
2022/09/04 00:18:52;;;;;;;11.35;8.15;;;;;;;17.54;78.64;101303.19;5044643;28;20040;-72
2022/09/04 00:21:28;;;;;;;11.20;8.65;;;;;;;17.47;78.97;101296.50;5047131;28;20408;-72
2022/09/04 00:24:06;;;;;;;10.73;8.55;;;;;;;17.48;78.22;101298.19;5037215;28;20025;-72
2022/09/04 00:26:38;;;;;;;10.90;8.57;;;;;;;17.44;79.23;101294.00;5036239;28;20112;-72
2022/09/04 00:29:13;;;;;;;11.88;8.05;;;;;;;17.43;79.95;101292.28;5041417;28;20036;-72
2022/09/04 00:31:47;;;;;;;9.77;7.78;;;;;;;17.42;79.64;101301.09;5051193;28;20033;-72
2022/09/04 00:34:44;;;;;;;9.13;8.02;;;;;;;17.40;78.84;101300.31;5037227;28;20104;-72
2022/09/04 00:37:15;;;;;;;8.93;7.97;;;;;;;17.34;80.49;101299.75;5047800;28;20021;-72
2022/09/04 00:40:00;;;;;;;9.07;7.78;;;;;;;17.34;79.43;101305.03;5049874;28;20029;-72
2022/09/04 00:43:00;;;;;;;10.02;7.93;;;;;;;17.29;80.45;101292.03;5043510;28;20045;-71
2022/09/04 00:46:08;;;;;;;10.02;8.65;;;;;;;17.22;79.80;101301.13;5040332;28;20099;-71
2022/09/04 00:49:10;;;;;;;8.43;7.63;;;;;;;17.14;79.92;101301.47;5042296;28;20036;-72
2022/09/04 00:52:01;;;;;;;9.80;8.27;;;;;;;17.10;80.24;101310.41;5047140;28;20547;-72
2022/09/04 00:54:55;;;;;;;12.82;8.23;;;;;;;17.05;81.56;101313.25;5046415;28;20488;-72
2022/09/04 00:57:49;;;;;;;10.65;7.93;;;;;;;17.07;81.33;101311.44;5043303;28;20047;-72
2022/09/04 01:00:18;;;;;;;11.20;7.63;;;;;;;17.00;82.73;101309.09;5040736;28;20127;-72
2022/09/04 01:02:55;;;;;;;10.77;8.15;;;;;;;16.99;82.81;101310.88;5049150;28;20086;-72
2022/09/04 01:05:48;;;;;;;9.32;8.00;;;;;;;17.00;81.85;101319.63;5049392;28;20067;-72
2022/09/04 01:08:16;;;;;;;11.40;8.00;;;;;;;16.96;82.89;101320.69;5049234;28;20032;-72
2022/09/04 01:11:10;;;;;;;11.75;7.85;;;;;;;16.93;81.88;101319.03;5050898;28;20053;-72
2022/09/04 01:13:44;;;;;;;7.70;6.90;;;;;;;16.87;83.17;101327.19;5051010;28;20033;-71
2022/09/04 01:16:12;;;;;;;;;;;;;;;16.93;78.85;101321.66;5048372;28;20025;-72
2022/09/04 01:18:56;;;;;;;10.88;7.90;;;;;;;16.82;83.20;101329.19;5045293;28;19916;-71
2022/09/04 01:21:52;;;;;;;8.73;7.72;;;;;;;16.82;83.21;101337.94;5044837;28;20043;-72
2022/09/04 01:25:00;;;;;;;8.05;7.18;;;;;;;16.80;82.67;101341.53;5037810;28;20025;-72
2022/09/04 01:27:33;;;;;;;9.57;7.70;;;;;;;16.78;83.88;101349.53;5045530;28;20586;-72
2022/09/04 01:30:06;;;;;;;10.60;7.75;;;;;;;16.71;84.41;101352.41;5048512;28;20025;-72
2022/09/04 01:32:55;;;;;;;;;;;;;;;16.74;80.13;101347.03;5051474;28;20031;-72
2022/09/04 01:35:43;;;;;;;8.25;7.45;;;;;;;16.67;82.60;101354.31;5051716;28;19972;-72
2022/09/04 01:38:19;;;;;;;10.00;6.80;;;;;;;16.62;84.32;101349.25;5050313;28;20194;-72
2022/09/04 01:40:52;;;;;;;8.27;7.47;;;;;;;16.62;84.92;101353.66;5051233;28;20114;-72
2022/09/04 01:43:20;;;;;;;8.27;7.40;;;;;;;16.54;85.65;101346.06;5050073;28;20057;-72
2022/09/04 01:46:07;;;;;;;10.32;7.40;;;;;;;16.49;84.52;101355.06;5051125;28;20103;-72
2022/09/04 01:48:54;;;;;;;8.70;7.40;;;;;;;16.44;84.86;101357.88;5042507;28;20369;-72
2022/09/04 01:51:26;;;;;;;9.05;7.32;;;;;;;16.40;86.53;101358.91;5044329;28;20033;-72
2022/09/04 01:54:06;;;;;;;9.48;7.78;;;;;;;16.43;86.05;101353.53;5043897;28;20397;-72
2022/09/04 01:56:50;;;;;;;9.90;7.57;;;;;;;16.37;86.64;101354.63;5037853;28;20021;-72
2022/09/04 01:59:50;;;;;;;8.60;7.45;;;;;;;16.41;87.30;101370.28;5050097;28;20102;-72
2022/09/04 02:02:48;;;;;;;9.60;7.50;;;;;;;16.38;85.87;101369.53;5047975;28;20045;-72
2022/09/04 02:05:27;;;;;;;10.40;8.38;;;;;;;16.32;87.29;101371.53;5043595;28;20144;-72
2022/09/04 02:08:01;;;;;;;9.23;8.20;;;;;;;16.32;87.24;101369.75;5043837;28;20033;-72
2022/09/04 02:10:41;;;;;;;9.77;8.07;;;;;;;16.24;88.25;101376.22;5048471;28;20043;-72
2022/09/04 02:13:19;;;;;;;12.93;7.95;;;;;;;16.22;88.32;101378.03;5048437;28;20029;-72
2022/09/04 02:16:00;;;;;;;8.35;7.45;;;;;;;16.19;88.10;101384.31;5042664;28;20053;-72
2022/09/04 02:19:04;;;;;;;8.77;7.88;;;;;;;16.20;87.27;101382.53;5050415;28;20032;-72
2022/09/04 02:21:36;;;;;;;8.85;7.78;;;;;;;16.18;88.64;101390.47;5026820;28;20034;-72
2022/09/04 02:24:28;;;;;;;8.07;7.28;;;;;;;16.19;87.41;101388.72;5050646;28;20071;-72
2022/09/04 02:27:04;;;;;;;8.93;7.53;;;;;;;16.17;88.71;101388.75;5035566;28;20052;-71
2022/09/04 02:30:06;;;;;;;8.75;7.47;;;;;;;16.11;88.22;101389.84;5033024;28;20021;-72
2022/09/04 02:32:53;;;;;;;12.35;8.18;;;;;;;16.12;88.07;101391.56;5036988;28;20044;-72
2022/09/04 02:35:28;;;;;;;8.93;7.85;;;;;;;16.08;89.61;101395.22;5041119;28;20852;-72
2022/09/04 02:38:12;;;;;;;9.55;7.72;;;;;;;16.08;88.99;101400.47;5049966;28;20033;-72
2022/09/04 02:41:15;;;;;;;9.48;7.93;;;;;;;16.07;88.52;101400.53;5048163;28;20025;-71
2022/09/04 02:44:18;;;;;;;9.27;7.90;;;;;;;16.03;89.08;101404.22;5051033;28;20111;-72
2022/09/04 02:47:14;;;;;;;11.48;8.38;;;;;;;16.03;89.56;101407.69;5052273;28;20040;-71
2022/09/04 02:50:08;;;;;;;10.40;7.63;;;;;;;16.03;89.23;101407.69;5049330;28;20040;-71
2022/09/04 02:53:03;;;;;;;10.48;7.43;;;;;;;16.06;89.98;101409.34;5048807;28;20036;-71
2022/09/04 02:55:50;;;;;;;9.52;8.45;;;;;;;16.05;90.04;101413.72;5041478;28;20037;-71
2022/09/04 02:58:52;;;;;;;8.65;7.75;;;;;;;16.05;89.82;101416.34;5052842;28;20037;-71
2022/09/04 03:01:29;;;;;;;9.80;7.70;;;;;;;16.07;90.60;101425.06;5039689;28;20029;-72
2022/09/04 03:04:19;;;;;;;12.43;9.00;;;;;;;16.03;90.98;101418.22;5052420;28;20033;-71
2022/09/04 03:06:56;;;;;;;9.38;8.15;;;;;;;16.05;91.25;101419.00;5051805;28;20115;-71
2022/09/04 03:09:31;;;;;;;9.65;8.23;;;;;;;16.00;92.23;101413.06;5047096;28;20036;-71
2022/09/04 03:12:08;;;;;;;10.45;8.05;;;;;;;15.95;92.98;101420.25;5049413;28;20053;-72
2022/09/04 03:14:42;;;;;;;9.10;8.18;;;;;;;15.96;92.93;101419.34;5053059;28;20021;-71
2022/09/04 03:17:37;;;;;;;10.73;8.48;;;;;;;15.95;92.19;101430.75;5051900;28;20546;-72
2022/09/04 03:20:13;;;;;;;9.15;7.72;;;;;;;15.92;92.79;101428.25;5052553;28;20476;-72
2022/09/04 03:22:47;;;;;;;14.18;8.20;;;;;;;15.89;93.40;101426.63;5044345;28;20536;-72
2022/09/04 03:25:45;;;;;;;10.15;8.23;;;;;;;15.87;92.57;101430.19;5045110;28;20032;-72
2022/09/04 03:28:24;;;;;;;9.02;8.13;;;;;;;15.84;93.68;101422.44;5050270;28;20037;-72
2022/09/04 03:30:51;;;;;;;9.55;8.55;;;;;;;15.82;94.35;101422.47;5053330;28;20024;-71
2022/09/04 03:33:28;;;;;;;12.38;9.05;;;;;;;15.79;94.37;101429.59;5036887;28;20106;-72
2022/09/04 03:36:06;;;;;;;10.30;8.65;;;;;;;15.79;94.10;101433.09;5052201;28;20024;-71
2022/09/04 03:38:45;;;;;;;10.35;8.60;;;;;;;15.75;94.09;101428.00;5051225;28;20025;-72
2022/09/04 03:41:30;;;;;;;11.88;8.40;;;;;;;15.74;94.52;101426.28;5052073;28;20107;-72
2022/09/04 03:44:02;;;;;;;9.75;8.60;;;;;;;15.73;94.45;101435.97;5030377;28;20044;-71
2022/09/04 03:46:48;;;;;;;9.13;8.23;;;;;;;15.72;93.63;101428.13;5050814;28;20171;-71
2022/09/04 03:49:41;;;;;;;11.90;9.38;;;;;;;15.68;95.13;101441.34;5046056;28;20025;-71
2022/09/04 03:52:19;;;;;;;10.43;9.07;;;;;;;15.64;95.04;101437.09;5050574;28;20119;-71
2022/09/04 03:55:36;;;;;;;9.38;8.38;;;;;;;15.63;94.58;101440.66;5053424;28;20032;-71
2022/09/04 03:58:12;;;;;;;11.23;9.10;;;;;;;15.60;95.50;101443.38;5050018;28;20037;-72
2022/09/04 04:00:55;;;;;;;10.85;8.63;;;;;;;15.58;95.48;101439.94;5051731;28;20041;-71
2022/09/04 04:03:56;;;;;;;9.63;8.63;;;;;;;15.57;96.13;101440.00;5046019;28;20132;-71
2022/09/04 04:06:36;;;;;;;8.90;8.00;;;;;;;15.56;96.28;101439.13;5038899;28;20047;-72
2022/09/04 04:09:17;;;;;;;9.52;8.23;;;;;;;15.53;96.59;101441.88;5047128;28;20033;-71
2022/09/04 04:12:05;;;;;;;11.35;8.57;;;;;;;15.50;96.73;101449.88;5051115;28;20059;-71
2022/09/04 04:14:51;;;;;;;10.40;8.38;;;;;;;15.51;96.25;101456.84;5048722;28;20040;-72
2022/09/04 04:17:34;;;;;;;9.75;8.75;;;;;;;15.44;97.38;101450.06;5037808;28;20034;-72
2022/09/04 04:20:30;;;;;;;10.25;9.15;;;;;;;15.40;97.67;101464.19;5045194;28;20439;-71
2022/09/04 04:23:35;;;;;;;10.15;8.40;;;;;;;15.39;96.72;101465.97;5044736;28;20116;-71
2022/09/04 04:26:27;;;;;;;9.23;8.20;;;;;;;15.40;96.67;101472.97;5041848;28;20033;-71
2022/09/04 04:29:11;;;;;;;11.23;8.40;;;;;;;15.38;97.36;101471.28;5045783;28;20079;-72
2022/09/04 04:31:40;;;;;;;12.85;9.32;;;;;;;15.33;98.25;101471.44;5037631;28;20116;-71
2022/09/04 04:34:11;;;;;;;10.82;9.25;;;;;;;15.31;98.59;101475.91;5040473;28;20028;-71
2022/09/04 04:37:38;;;;;;;10.68;9.35;;;;;;;15.37;96.60;101477.47;5044972;28;20108;-71
2022/09/04 04:40:31;;;;;;;9.75;8.75;;;;;;;15.37;97.58;101475.69;5007447;28;20145;-71
2022/09/04 04:43:11;;;;;;;12.43;9.37;;;;;;;15.35;98.34;101474.03;5008967;28;20108;-72
2022/09/04 04:45:49;;;;;;;10.52;9.30;;;;;;;15.30;98.81;101474.16;5048239;28;20043;-71
2022/09/04 04:48:22;;;;;;;11.05;8.88;;;;;;;15.33;98.77;101474.06;5041812;28;20051;-71
2022/09/04 04:51:17;;;;;;;10.85;8.63;;;;;;;15.33;98.56;101481.09;5049820;28;20104;-71
2022/09/04 04:54:12;;;;;;;11.50;9.15;;;;;;;15.34;98.30;101481.06;5035423;28;20106;-71
2022/09/04 04:56:51;;;;;;;11.27;9.65;;;;;;;15.32;98.91;101479.38;5038801;28;20033;-71
2022/09/04 04:59:29;;;;;;;12.30;9.60;;;;;;;15.31;98.91;101490.81;5049619;28;20033;-71
2022/09/04 05:02:20;;;;;;;10.63;9.27;;;;;;;15.30;98.91;101487.28;5050581;28;20044;-71
2022/09/04 05:04:52;;;;;;;12.35;9.15;;;;;;;15.27;100.00;101494.41;5049372;28;20041;-71
2022/09/04 05:07:34;;;;;;;10.45;9.30;;;;;;;15.28;99.74;101496.16;5048584;28;20071;-71
2022/09/04 05:10:10;;;;;;;10.75;9.02;;;;;;;15.25;100.00;101497.13;5042322;28;20036;-71
2022/09/04 05:12:54;;;;;;;12.15;9.40;;;;;;;15.30;99.46;101497.81;5051615;28;20037;-72
2022/09/04 05:15:39;;;;;;;;;;;;;;;15.34;96.40;101504.69;5051052;28;20033;-71
2022/09/04 05:18:15;;;;;;;10.20;9.07;;;;;;;15.35;99.52;101513.44;5051048;28;19912;-71
2022/09/04 05:20:50;;;;;;;12.05;9.25;;;;;;;15.39;100.00;101507.16;5051990;28;20029;-72
2022/09/04 05:23:35;;;;;;;10.05;9.02;;;;;;;15.44;99.77;101519.25;5050461;28;20104;-71
2022/09/04 05:26:18;;;;;;;12.23;9.98;;;;;;;15.48;99.82;101525.25;5045096;28;20033;-73
2022/09/04 05:28:53;;;;;;;12.63;10.03;;;;;;;15.55;100.00;101531.16;5049771;28;20112;-73
2022/09/04 05:31:41;;;;;;;12.63;9.77;;;;;;;15.65;99.35;101530.81;5051174;28;20083;-73
2022/09/04 05:34:11;;;;;;;11.23;9.95;;;;;;;15.71;99.61;101531.56;5038237;28;20120;-73
2022/09/04 05:36:52;;;;;;;13.35;9.77;;;;;;;15.79;99.58;101537.38;5062665;28;20137;-73
2022/09/04 05:39:35;;;;;;;15.90;9.82;;;;;;;15.84;98.92;101540.75;5038551;28;20104;-73
2022/09/04 05:42:35;;;;;;;13.18;10.38;;;;;;;15.89;98.40;101536.16;5051471;28;20511;-71
2022/09/04 05:45:07;;;;;;;12.02;9.77;;;;;;;15.92;99.66;101541.31;5083408;28;20029;-71
2022/09/04 05:48:12;;;;;;;11.18;9.82;;;;;;;16.04;98.97;101546.16;5050844;28;20456;-71
2022/09/04 05:50:54;;;;;;;12.32;9.55;;;;;;;16.14;99.00;101557.22;5044882;28;20036;-71
2022/09/04 05:53:56;;;;;;;11.27;10.00;;;;;;;16.21;97.86;101550.81;5030920;28;20030;-71
2022/09/04 05:56:43;;;;;;;12.43;10.00;;;;;;;16.25;97.87;101559.44;5029931;28;20388;-71
2022/09/04 05:59:53;;;;;;;12.68;10.07;;;;;;;16.27;97.57;101560.28;5032497;28;20036;-71
2022/09/04 06:02:52;;;;;;;12.23;10.57;;;;;;;16.24;98.18;101568.28;5030499;28;20103;-71
2022/09/04 06:05:35;;;;;;;14.13;10.63;;;;;;;16.20;99.32;101566.66;5030940;28;20537;-71
2022/09/04 06:08:30;;;;;;;11.88;10.60;;;;;;;16.22;98.86;101570.09;5030867;28;20025;-71
2022/09/04 06:11:01;;;;;;;13.50;10.65;;;;;;;16.26;99.47;101576.97;5030343;28;20101;-71
2022/09/04 06:13:50;;;;;;;15.60;10.73;;;;;;;16.31;99.02;101578.50;5041602;28;20036;-71
2022/09/04 06:16:24;;;;;;;14.43;10.90;;;;;;;16.38;98.64;101584.41;5033325;28;20147;-71
2022/09/04 06:19:24;;;;;;;12.63;10.30;;;;;;;16.44;98.53;101581.56;5044398;28;20029;-71
2022/09/04 06:22:03;;;;;;;15.98;12.00;;;;;;;16.50;97.53;101573.44;5043184;28;20469;-71
2022/09/04 06:24:56;;;;;;;13.85;10.40;;;;;;;16.61;97.43;101581.81;5039759;28;20469;-71
2022/09/04 06:27:38;;;;;;;11.45;10.05;;;;;;;16.70;97.12;101582.38;5044289;28;20073;-71
2022/09/04 06:30:10;;;;;;;14.32;10.70;;;;;;;16.80;98.25;101579.38;5046052;28;20044;-71
2022/09/04 06:32:41;;;;;;;12.90;10.80;;;;;;;16.87;97.87;101572.09;5051249;28;20477;-71
2022/09/04 06:35:25;;;;;;;12.80;10.60;;;;;;;16.95;96.93;101587.63;5053312;28;20033;-71
2022/09/04 06:38:16;;;;;;;15.13;11.60;;;;;;;17.00;96.70;101580.41;5048753;28;20104;-71
2022/09/04 06:40:54;;;;;;;16.40;11.25;;;;;;;17.07;96.66;101590.66;5052234;28;20045;-71
2022/09/04 06:43:54;;;;;;;14.07;12.18;;;;;;;17.23;95.52;101595.31;5051295;28;20678;-71
2022/09/04 06:46:37;;;;;;;11.98;10.68;;;;;;;17.35;96.06;101588.72;5042291;28;20043;-71
2022/09/04 06:49:13;;;;;;;13.95;11.48;;;;;;;17.45;95.23;101596.19;5049092;28;20074;-71
2022/09/04 06:51:56;;;;;;;13.10;11.32;;;;;;;17.57;94.64;101591.34;5052863;28;20473;-71
2022/09/04 06:54:44;;;;;;;11.50;9.43;;;;;;;17.66;92.52;101591.81;5052737;28;20537;-71
2022/09/04 06:57:28;;;;;;;13.35;11.60;;;;;;;17.76;93.12;101587.91;5053219;28;20021;-71
2022/09/04 07:00:08;;;;;;;13.20;10.85;;;;;;;17.86;93.20;101590.19;5053241;28;20033;-71
2022/09/04 07:02:55;;;;;;;14.43;11.68;;;;;;;17.97;92.78;101585.28;5049180;28;20025;-71
2022/09/04 07:05:51;;;;;;;14.55;10.90;;;;;;;18.06;92.69;101597.25;5047578;28;20086;-71
2022/09/04 07:08:37;;;;;;;12.02;10.77;;;;;;;18.15;92.66;101596.84;5056341;28;20032;-71
2022/09/04 07:11:17;;;;;;;11.75;9.27;;;;;;;18.21;88.67;101599.19;5049098;28;20037;-71
2022/09/04 07:14:15;;;;;;;12.48;10.00;;;;;;;18.29;90.37;101602.38;5042540;28;20065;-71
2022/09/04 07:17:11;;;;;;;18.73;11.38;;;;;;;18.33;90.44;101603.09;5038053;28;20040;-71
2022/09/04 07:19:51;;;;;;;14.10;10.52;;;;;;;18.39;89.91;101614.25;5040344;28;20065;-73
2022/09/04 07:22:22;;;;;;;12.75;11.00;;;;;;;18.48;89.74;101611.22;5048788;28;20025;-72
2022/09/04 07:25:06;;;;;;;18.23;12.80;;;;;;;18.55;89.49;101616.22;5034557;28;20065;-72
2022/09/04 07:27:43;;;;;;;15.27;11.18;;;;;;;18.65;90.20;101617.53;5048791;28;20021;-73
2022/09/04 07:30:12;;;;;;;12.55;11.00;;;;;;;18.70;89.07;101611.13;5049458;28;20040;-73
2022/09/04 07:32:56;;;;;;;13.93;12.07;;;;;;;18.81;88.74;101618.56;5038084;28;20033;-73
2022/09/04 07:35:33;;;;;;;15.75;11.65;;;;;;;18.91;88.36;101616.38;5035816;28;20481;-73
2022/09/04 07:38:28;;;;;;;16.90;12.10;;;;;;;18.97;85.89;101629.31;5041677;28;20083;-73
2022/09/04 07:41:23;;;;;;;17.73;12.27;;;;;;;19.02;87.39;101634.34;5050939;28;20040;-73
2022/09/04 07:44:04;;;;;;;16.88;13.02;;;;;;;18.97;87.54;101631.94;5046872;28;20383;-73
2022/09/04 07:46:32;;;;;;;15.98;12.57;;;;;;;18.94;87.98;101648.78;5039495;28;20036;-73
2022/09/04 07:49:08;;;;;;;18.65;14.32;;;;;;;18.92;87.36;101637.41;5031436;28;20018;-73
2022/09/04 07:51:44;;;;;;;17.40;12.48;;;;;;;19.03;88.27;101642.22;5032252;28;20373;-73
2022/09/04 07:54:18;;;;;;;18.65;13.50;;;;;;;19.23;87.23;101638.66;5032522;28;20508;-72
2022/09/04 07:56:56;;;;;;;16.70;12.52;;;;;;;19.39;87.54;101641.41;5049347;28;20044;-73
2022/09/04 07:59:38;;;;;;;17.88;12.93;;;;;;;19.53;86.83;101640.78;5039502;28;20017;-73
2022/09/04 08:02:34;;;;;;;18.70;15.10;;;;;;;19.68;86.46;101640.03;5036691;28;20038;-73
2022/09/04 08:05:02;;;;;;;22.83;13.90;;;;;;;19.81;84.99;101635.84;5037802;28;20388;-73
2022/09/04 08:07:36;;;;;;;18.50;13.10;;;;;;;19.93;85.00;101636.19;5032874;28;20021;-73
2022/09/04 08:10:16;;;;;;;18.27;14.18;;;;;;;20.09;84.58;101645.06;5036431;28;20025;-73
2022/09/04 08:12:55;;;;;;;18.25;13.13;;;;;;;20.22;84.42;101650.59;5031767;28;20469;-73
2022/09/04 08:15:48;;;;;;;19.17;14.63;;;;;;;20.31;82.76;101637.75;5032759;28;20037;-73
2022/09/04 08:18:35;;;;;;;18.77;13.07;;;;;;;20.43;83.15;101645.97;5044702;28;20494;-73
2022/09/04 08:21:12;;;;;;;19.00;11.85;;;;;;;20.50;82.37;101650.91;5038428;28;20075;-73
2022/09/04 08:24:04;;;;;;;19.60;13.02;;;;;;;20.59;82.02;101654.88;5035165;28;20049;-73
2022/09/04 08:27:20;;;;;;;16.45;12.23;;;;;;;20.67;81.64;101660.63;5046634;28;20021;-73
2022/09/04 08:30:00;;;;;;;16.70;12.32;;;;;;;20.83;81.25;101650.09;5048408;28;20045;-73
2022/09/04 08:32:28;;;;;;;19.00;13.20;;;;;;;21.01;79.99;101656.16;5045120;28;20104;-73
2022/09/04 08:35:26;;;;;;;18.83;14.00;;;;;;;21.15;79.81;101673.97;5053826;28;20049;-73
2022/09/04 08:38:09;;;;;;;18.05;12.25;;;;;;;21.22;77.88;101673.56;5042201;28;20457;-73
2022/09/04 08:40:52;;;;;;;;;;;;;;;21.29;79.36;101663.47;5052514;28;20032;-73
2022/09/04 08:43:45;;;;;;;15.45;12.15;;;;;;;21.37;78.13;101673.69;5045417;28;20296;-74
2022/09/04 08:46:47;;;;;;;13.77;11.43;;;;;;;21.41;77.57;101680.53;5031428;28;20032;-74
2022/09/04 08:49:37;;;;;;;13.68;10.90;;;;;;;21.51;77.11;101674.59;5042694;28;20392;-73
2022/09/04 08:52:43;;;;;;;14.13;9.88;;;;;;;21.62;77.75;101675.81;5041838;28;20032;-74
2022/09/04 08:55:39;;;;;;;13.77;9.48;;;;;;;21.68;76.36;101678.09;5030647;28;20469;-73
2022/09/04 08:58:43;;;;;;;13.57;8.52;;;;;;;21.81;76.22;101676.50;5040481;28;20045;-73
2022/09/04 09:01:30;;;;;;;12.40;8.10;;;;;;;22.05;75.65;101673.34;5044568;28;20115;-73
2022/09/04 09:04:10;;;;;;;13.23;9.93;;;;;;;22.20;73.45;101670.69;5050884;28;20044;-73
2022/09/04 09:07:13;;;;;;;12.68;8.18;;;;;;;22.33;73.78;101678.75;5034460;28;20025;-73
2022/09/04 09:10:31;;;;;;;12.02;7.40;;;;;;;22.36;72.29;101678.56;5043883;28;20026;-73
2022/09/04 09:13:20;;;;;;;10.15;7.32;;;;;;;22.50;71.22;101675.09;5038122;28;20030;-73
2022/09/04 09:16:07;;;;;;;9.18;7.63;;;;;;;22.60;69.96;101670.94;5033109;28;20057;-73
2022/09/04 09:18:44;;;;;;;9.27;6.30;;;;;;;22.82;69.84;101672.25;5051557;28;20431;-74
2022/09/04 09:21:14;;;;;;;12.50;6.78;;;;;;;22.90;68.33;101668.19;5040239;28;20033;-72
2022/09/04 09:23:54;;;;;;;10.07;6.60;;;;;;;23.05;68.42;101663.75;5035265;28;20032;-73
2022/09/04 09:26:27;;;;;;;8.63;6.38;;;;;;;23.21;68.31;101665.44;5031250;28;20036;-73
2022/09/04 09:29:29;;;;;;;9.35;6.75;;;;;;;23.27;67.70;101665.03;5057524;28;20090;-73
2022/09/04 09:32:16;;;;;;;11.82;6.03;;;;;;;23.36;67.06;101659.13;5054753;28;20047;-72
2022/09/04 09:35:05;;;;;;;7.70;5.18;;;;;;;23.48;66.99;101655.69;5052269;28;20388;-73
2022/09/04 09:38:02;;;;;;;8.30;6.35;;;;;;;23.64;65.09;101671.50;5043994;28;20045;-71
2022/09/04 09:41:02;;;;;;;6.28;5.00;;;;;;;23.71;64.77;101664.00;5051875;28;20605;-71
2022/09/04 09:43:49;;;;;;;8.25;5.18;;;;;;;23.82;63.98;101675.66;5050328;28;20357;-71
2022/09/04 09:46:44;;;;;;;7.03;4.63;;;;;;;23.99;63.82;101671.00;5040002;28;20094;-71
2022/09/04 09:49:34;;;;;;;7.30;4.88;;;;;;;24.10;63.17;101671.16;5049061;28;20067;-71
2022/09/04 09:52:26;;;;;;;7.55;6.13;;;;;;;24.11;62.23;101674.66;5051114;28;20024;-70
2022/09/04 09:55:27;;;;;;;7.88;4.97;;;;;;;24.14;61.81;101677.97;5051414;28;20362;-71
2022/09/04 09:58:18;;;;;;;5.28;3.88;;;;;;;24.24;58.93;101670.22;5051504;28;20037;-71
2022/09/04 10:01:03;;;;;;;6.45;3.83;;;;;;;24.36;61.46;101672.06;5051275;28;20096;-71
2022/09/04 10:03:37;;;;;;;7.65;4.13;;;;;;;24.57;60.28;101672.41;5050068;28;20082;-71
2022/09/04 10:06:34;;;;;;;6.18;4.10;;;;;;;24.72;60.36;101686.47;5051110;28;20028;-71
2022/09/04 10:09:28;;;;;;;6.07;4.60;;;;;;;24.94;60.03;101684.00;5051030;28;20083;-71
2022/09/04 10:12:18;;;;;;;7.70;3.97;;;;;;;25.09;58.69;101673.22;5051159;28;20491;-71
2022/09/04 10:15:03;;;;;;;4.80;3.20;;;;;;;25.18;56.05;101672.59;5051465;28;20090;-71
2022/09/04 10:17:50;;;;;;;6.47;3.42;;;;;;;25.33;57.17;101676.81;5050075;28;20473;-71
2022/09/04 10:20:45;;;;;;;4.95;3.30;;;;;;;25.50;58.31;101672.91;5039614;28;20384;-71
2022/09/04 10:23:41;;;;;;;4.15;3.15;;;;;;;25.81;56.17;101674.19;5050690;28;20021;-71
2022/09/04 10:26:38;;;;;;;3.28;2.90;;;;;;;26.04;53.36;101674.28;5039700;28;20090;-71
2022/09/04 10:29:10;;;;;;;2.78;2.40;;;;;;;26.20;51.09;101677.50;5038303;28;20060;-71
2022/09/04 10:32:07;;;;;;;4.87;3.17;;;;;;;26.26;50.96;101677.03;5049923;28;20601;-71
2022/09/04 10:34:54;;;;;;;3.25;2.60;;;;;;;26.39;50.51;101676.94;5049632;28;20376;-72
2022/09/04 10:37:34;;;;;;;3.60;2.50;;;;;;;26.51;49.63;101680.50;5045080;28;20041;-72
2022/09/04 10:40:34;;;;;;;4.03;2.40;;;;;;;26.67;47.78;101670.31;5044262;28;20029;-72
2022/09/04 10:43:15;;;;;;;3.80;2.53;;;;;;;26.81;48.52;101678.13;5040432;28;20052;-71
2022/09/04 10:46:00;;;;;;;2.90;2.60;;;;;;;26.67;47.38;101675.66;5049903;28;20389;-72
2022/09/04 10:48:57;;;;;;;2.95;2.40;;;;;;;26.42;48.39;101676.66;5050716;28;20036;-72
2022/09/04 10:51:38;;;;;;;3.38;2.50;;;;;;;26.10;49.35;101682.69;5050184;28;20025;-72
2022/09/04 10:54:43;;;;;;;4.55;2.88;;;;;;;25.96;50.94;101679.34;5050403;28;20033;-72
2022/09/04 10:57:30;;;;;;;4.93;2.70;;;;;;;25.72;51.79;101679.34;5050451;28;20047;-71
2022/09/04 11:00:10;;;;;;;3.72;3.05;;;;;;;25.80;49.82;101677.84;5049977;28;20037;-72
2022/09/04 11:03:03;;;;;;;7.40;3.63;;;;;;;26.36;50.50;101664.66;5052158;28;20025;-72
2022/09/04 11:06:01;;;;;;;2.80;2.50;;;;;;;26.81;49.04;101662.06;5054180;28;20037;-72
2022/09/04 11:08:44;;;;;;;5.38;2.80;;;;;;;27.25;46.49;101665.69;5043818;28;20147;-72
2022/09/04 11:11:31;;;;;;;3.10;2.63;;;;;;;27.13;45.85;101671.16;5053818;28;20491;-72
2022/09/04 11:14:14;;;;;;;4.32;2.20;;;;;;;26.95;46.12;101668.13;5053588;28;20028;-72
2022/09/04 11:16:58;;;;;;;3.95;2.80;;;;;;;27.06;46.97;101665.44;5041073;28;20043;-72
2022/09/04 11:20:00;;;;;;;4.30;3.00;;;;;;;27.22;45.54;101671.28;5053429;28;20025;-72
2022/09/04 11:22:50;;;;;;;3.38;2.90;;;;;;;27.57;44.83;101664.91;5053659;28;20078;-72
2022/09/04 11:25:37;;;;;;;3.83;2.97;;;;;;;27.80;42.10;101675.56;5049929;28;20025;-72
2022/09/04 11:28:27;;;;;;;5.05;2.97;;;;;;;27.67;41.50;101673.88;5046191;28;20081;-72
2022/09/04 11:31:00;;;;;;;5.10;2.72;;;;;;;27.91;41.26;101668.31;5042133;28;20036;-72
2022/09/04 11:33:56;;;;;;;4.55;2.60;;;;;;;27.96;42.53;101676.84;5053676;28;20055;-72
2022/09/04 11:36:45;;;;;;;6.38;3.60;;;;;;;27.97;39.97;101666.97;5053298;28;20029;-72
2022/09/04 11:39:35;;;;;;;5.13;3.40;;;;;;;28.23;41.01;101672.78;5053404;28;20024;-72
2022/09/04 11:42:26;;;;;;;4.22;2.92;;;;;;;28.72;39.89;101668.59;5052413;28;20049;-72
2022/09/04 11:45:23;;;;;;;6.10;3.05;;;;;;;29.05;38.95;101670.16;5053783;28;20032;-72
2022/09/04 11:48:08;;;;;;;3.15;2.50;;;;;;;29.54;37.28;101671.09;5053456;28;20039;-72
2022/09/04 11:51:01;;;;;;;3.85;2.80;;;;;;;30.11;37.10;101663.19;5053070;28;20504;-72
2022/09/04 11:54:00;;;;;;;7.43;3.10;;;;;;;30.76;36.23;101668.72;5053229;28;20124;-72
2022/09/04 11:57:05;;;;;;;6.57;2.90;;;;;;;30.90;36.17;101670.97;5041167;28;20111;-72
2022/09/04 12:00:06;;;;;;;3.53;3.00;;;;;;;30.93;36.86;101665.25;5052947;28;20032;-72
2022/09/04 12:03:07;;;;;;;9.15;3.03;;;;;;;31.37;36.00;101664.66;5052285;28;20037;-72
2022/09/04 12:05:42;;;;;;;6.18;3.25;;;;;;;30.74;34.41;101674.28;5053164;28;20032;-72
2022/09/04 12:08:42;;;;;;;5.18;2.80;;;;;;;31.30;35.38;101663.53;5053470;28;20081;-72
2022/09/04 12:11:38;;;;;;;4.13;2.42;;;;;;;31.98;33.59;101669.28;5052283;28;20107;-72
2022/09/04 12:14:27;;;;;;;6.55;3.00;;;;;;;32.06;32.54;101665.81;5052665;28;20029;-72
2022/09/04 12:17:14;;;;;;;3.08;2.70;;;;;;;32.08;33.61;101669.19;5041368;28;20784;-72
2022/09/04 12:20:07;;;;;;;6.22;2.65;;;;;;;32.51;33.10;101671.03;5052456;28;20516;-73
2022/09/04 12:22:35;;;;;;;;;;;;;;;33.09;33.43;101673.03;5053041;28;20029;-72
2022/09/04 12:25:06;;;;;;;3.03;2.50;;;;;;;33.25;31.23;101677.63;5049852;28;20058;-72
2022/09/04 12:27:49;;;;;;;4.47;3.10;;;;;;;33.64;32.25;101671.66;5041348;28;20453;-73
2022/09/04 12:30:22;;;;;;;4.57;2.78;;;;;;;33.39;29.90;101678.00;5052110;28;20147;-72
2022/09/04 12:33:06;;;;;;;3.10;2.80;;;;;;;33.27;30.98;101675.59;5052798;28;20032;-73
2022/09/04 12:35:50;;;;;;;5.45;2.88;;;;;;;32.33;31.12;101671.06;5052156;28;20029;-72
2022/09/04 12:38:34;;;;;;;7.00;2.50;;;;;;;31.84;33.23;101670.66;5051450;28;20036;-72
2022/09/04 12:41:26;;;;;;;4.03;2.83;;;;;;;31.04;33.67;101671.47;5039939;28;20044;-72
2022/09/04 12:44:10;;;;;;;5.10;2.63;;;;;;;30.45;34.22;101679.75;5052261;28;20542;-72